sensor_id;sensor_type;location;lat;lon;timestamp;P1;durP1;ratioP1;P2;durP2;ratioP2
37151;SDS011;23046;50.112;8.952;2024-03-08T00:00:09;13.77;;;7.70;;
37151;SDS011;23046;50.112;8.952;2024-03-08T00:00:22;13.80;;;7.30;;
37151;SDS011;23046;50.112;8.952;2024-03-08T00:00:32;13.43;;;7.47;;
37151;SDS011;23046;50.112;8.952;2024-03-08T00:00:43;13.30;;;7.50;;
37151;SDS011;23046;50.112;8.952;2024-03-08T00:00:53;13.40;;;7.67;;
37151;SDS011;23046;50.112;8.952;2024-03-08T00:01:03;13.50;;;7.50;;
37151;SDS011;23046;50.112;8.952;2024-03-08T00:01:14;14.17;;;7.70;;
37151;SDS011;23046;50.112;8.952;2024-03-08T00:01:24;13.53;;;7.47;;
37151;SDS011;23046;50.112;8.952;2024-03-08T00:01:34;14.73;;;7.77;;
37151;SDS011;23046;50.112;8.952;2024-03-08T00:01:44;14.27;;;7.70;;
37151;SDS011;23046;50.112;8.952;2024-03-08T00:01:55;14.20;;;7.67;;
37151;SDS011;23046;50.112;8.952;2024-03-08T00:02:05;14.47;;;7.50;;
37151;SDS011;23046;50.112;8.952;2024-03-08T00:02:15;15.17;;;7.87;;
37151;SDS011;23046;50.112;8.952;2024-03-08T00:02:25;15.68;;;8.23;;
37151;SDS011;23046;50.112;8.952;2024-03-08T00:02:36;14.57;;;8.30;;
37151;SDS011;23046;50.112;8.952;2024-03-08T00:02:47;15.38;;;7.80;;
37151;SDS011;23046;50.112;8.952;2024-03-08T00:02:57;15.40;;;7.60;;
37151;SDS011;23046;50.112;8.952;2024-03-08T00:03:09;14.35;;;7.38;;
37151;SDS011;23046;50.112;8.952;2024-03-08T00:03:20;13.60;;;7.50;;
37151;SDS011;23046;50.112;8.952;2024-03-08T00:03:30;12.80;;;7.37;;
37151;SDS011;23046;50.112;8.952;2024-03-08T00:03:41;13.07;;;7.38;;
37151;SDS011;23046;50.112;8.952;2024-03-08T00:03:51;12.97;;;7.30;;
37151;SDS011;23046;50.112;8.952;2024-03-08T00:04:02;13.50;;;7.63;;
37151;SDS011;23046;50.112;8.952;2024-03-08T00:04:12;13.88;;;7.75;;
37151;SDS011;23046;50.112;8.952;2024-03-08T00:04:23;13.47;;;7.67;;
37151;SDS011;23046;50.112;8.952;2024-03-08T00:04:33;13.73;;;7.40;;
37151;SDS011;23046;50.112;8.952;2024-03-08T00:04:44;13.13;;;7.30;;
37151;SDS011;23046;50.112;8.952;2024-03-08T00:04:54;13.80;;;7.50;;
37151;SDS011;23046;50.112;8.952;2024-03-08T00:05:05;14.03;;;7.43;;
37151;SDS011;23046;50.112;8.952;2024-03-08T00:05:16;14.85;;;7.68;;
37151;SDS011;23046;50.112;8.952;2024-03-08T00:05:28;15.38;;;7.50;;
37151;SDS011;23046;50.112;8.952;2024-03-08T00:05:38;16.07;;;7.80;;
37151;SDS011;23046;50.112;8.952;2024-03-08T00:05:48;15.13;;;7.70;;
37151;SDS011;23046;50.112;8.952;2024-03-08T00:05:58;14.95;;;7.80;;
37151;SDS011;23046;50.112;8.952;2024-03-08T00:06:09;14.47;;;7.70;;
37151;SDS011;23046;50.112;8.952;2024-03-08T00:06:19;15.60;;;7.83;;
37151;SDS011;23046;50.112;8.952;2024-03-08T00:06:29;14.80;;;7.83;;
37151;SDS011;23046;50.112;8.952;2024-03-08T00:06:39;13.55;;;7.85;;
37151;SDS011;23046;50.112;8.952;2024-03-08T00:06:50;12.50;;;7.50;;
37151;SDS011;23046;50.112;8.952;2024-03-08T00:07:00;13.60;;;7.45;;
37151;SDS011;23046;50.112;8.952;2024-03-08T00:07:10;14.57;;;7.63;;
37151;SDS011;23046;50.112;8.952;2024-03-08T00:07:21;15.53;;;7.93;;
37151;SDS011;23046;50.112;8.952;2024-03-08T00:07:31;13.73;;;7.70;;
37151;SDS011;23046;50.112;8.952;2024-03-08T00:07:41;14.17;;;7.77;;
37151;SDS011;23046;50.112;8.952;2024-03-08T00:07:52;15.05;;;7.72;;
37151;SDS011;23046;50.112;8.952;2024-03-08T00:08:03;16.88;;;7.90;;
37151;SDS011;23046;50.112;8.952;2024-03-08T00:08:13;15.93;;;7.70;;
37151;SDS011;23046;50.112;8.952;2024-03-08T00:08:23;15.10;;;7.63;;
37151;SDS011;23046;50.112;8.952;2024-03-08T00:08:33;13.90;;;7.53;;
37151;SDS011;23046;50.112;8.952;2024-03-08T00:08:44;14.88;;;7.60;;
37151;SDS011;23046;50.112;8.952;2024-03-08T00:08:54;15.77;;;7.67;;
37151;SDS011;23046;50.112;8.952;2024-03-08T00:09:04;15.57;;;7.83;;
37151;SDS011;23046;50.112;8.952;2024-03-08T00:09:14;14.37;;;7.63;;
37151;SDS011;23046;50.112;8.952;2024-03-08T00:09:25;13.07;;;7.38;;
37151;SDS011;23046;50.112;8.952;2024-03-08T00:09:37;15.13;;;7.50;;
37151;SDS011;23046;50.112;8.952;2024-03-08T00:09:47;14.83;;;7.43;;
37151;SDS011;23046;50.112;8.952;2024-03-08T00:09:57;15.10;;;7.67;;
37151;SDS011;23046;50.112;8.952;2024-03-08T00:10:08;13.75;;;7.65;;
37151;SDS011;23046;50.112;8.952;2024-03-08T00:10:21;14.35;;;7.75;;
37151;SDS011;23046;50.112;8.952;2024-03-08T00:10:31;13.53;;;7.50;;
37151;SDS011;23046;50.112;8.952;2024-03-08T00:10:41;13.07;;;7.40;;
37151;SDS011;23046;50.112;8.952;2024-03-08T00:10:51;14.27;;;7.70;;
37151;SDS011;23046;50.112;8.952;2024-03-08T00:11:01;15.80;;;8.00;;
37151;SDS011;23046;50.112;8.952;2024-03-08T00:11:12;15.88;;;8.13;;
37151;SDS011;23046;50.112;8.952;2024-03-08T00:11:22;14.70;;;7.70;;
37151;SDS011;23046;50.112;8.952;2024-03-08T00:11:35;12.52;;;7.07;;
37151;SDS011;23046;50.112;8.952;2024-03-08T00:11:46;13.05;;;7.13;;
37151;SDS011;23046;50.112;8.952;2024-03-08T00:11:56;14.33;;;7.53;;
37151;SDS011;23046;50.112;8.952;2024-03-08T00:12:06;15.53;;;7.60;;
37151;SDS011;23046;50.112;8.952;2024-03-08T00:12:16;14.20;;;7.40;;
37151;SDS011;23046;50.112;8.952;2024-03-08T00:12:27;11.98;;;7.20;;
37151;SDS011;23046;50.112;8.952;2024-03-08T00:12:38;11.73;;;7.37;;
37151;SDS011;23046;50.112;8.952;2024-03-08T00:12:48;13.15;;;7.63;;
37151;SDS011;23046;50.112;8.952;2024-03-08T00:12:58;15.27;;;7.77;;
37151;SDS011;23046;50.112;8.952;2024-03-08T00:13:08;16.57;;;8.00;;
37151;SDS011;23046;50.112;8.952;2024-03-08T00:13:18;15.87;;;7.83;;
37151;SDS011;23046;50.112;8.952;2024-03-08T00:13:29;14.63;;;7.43;;
37151;SDS011;23046;50.112;8.952;2024-03-08T00:13:39;14.43;;;7.32;;
37151;SDS011;23046;50.112;8.952;2024-03-08T00:13:49;14.17;;;7.50;;
37151;SDS011;23046;50.112;8.952;2024-03-08T00:14:00;14.63;;;7.93;;
37151;SDS011;23046;50.112;8.952;2024-03-08T00:14:10;15.27;;;8.02;;
37151;SDS011;23046;50.112;8.952;2024-03-08T00:14:20;15.67;;;8.10;;
37151;SDS011;23046;50.112;8.952;2024-03-08T00:14:31;15.70;;;8.13;;
37151;SDS011;23046;50.112;8.952;2024-03-08T00:14:42;14.02;;;7.93;;
37151;SDS011;23046;50.112;8.952;2024-03-08T00:14:53;13.67;;;7.43;;
37151;SDS011;23046;50.112;8.952;2024-03-08T00:15:03;13.13;;;7.40;;
37151;SDS011;23046;50.112;8.952;2024-03-08T00:15:14;13.80;;;7.50;;
37151;SDS011;23046;50.112;8.952;2024-03-08T00:15:25;13.40;;;7.57;;
37151;SDS011;23046;50.112;8.952;2024-03-08T00:15:35;13.10;;;7.47;;
37151;SDS011;23046;50.112;8.952;2024-03-08T00:15:45;12.77;;;7.37;;
37151;SDS011;23046;50.112;8.952;2024-03-08T00:15:55;13.77;;;7.87;;
37151;SDS011;23046;50.112;8.952;2024-03-08T00:16:07;13.75;;;7.88;;
37151;SDS011;23046;50.112;8.952;2024-03-08T00:16:19;13.40;;;7.88;;
37151;SDS011;23046;50.112;8.952;2024-03-08T00:16:29;13.90;;;7.67;;
37151;SDS011;23046;50.112;8.952;2024-03-08T00:16:39;13.77;;;7.70;;
37151;SDS011;23046;50.112;8.952;2024-03-08T00:16:53;12.75;;;7.60;;
37151;SDS011;23046;50.112;8.952;2024-03-08T00:17:04;13.70;;;7.78;;
37151;SDS011;23046;50.112;8.952;2024-03-08T00:17:14;14.80;;;7.97;;
37151;SDS011;23046;50.112;8.952;2024-03-08T00:17:25;14.80;;;7.70;;
37151;SDS011;23046;50.112;8.952;2024-03-08T00:17:37;13.73;;;7.45;;
37151;SDS011;23046;50.112;8.952;2024-03-08T00:17:48;13.02;;;7.40;;
37151;SDS011;23046;50.112;8.952;2024-03-08T00:17:58;12.48;;;7.45;;
37151;SDS011;23046;50.112;8.952;2024-03-08T00:18:08;13.73;;;7.57;;
37151;SDS011;23046;50.112;8.952;2024-03-08T00:18:19;14.40;;;7.53;;
37151;SDS011;23046;50.112;8.952;2024-03-08T00:18:29;15.50;;;7.70;;
37151;SDS011;23046;50.112;8.952;2024-03-08T00:18:39;14.10;;;7.60;;
37151;SDS011;23046;50.112;8.952;2024-03-08T00:18:49;13.17;;;7.30;;
37151;SDS011;23046;50.112;8.952;2024-03-08T00:19:00;12.20;;;6.97;;
37151;SDS011;23046;50.112;8.952;2024-03-08T00:19:10;13.77;;;7.03;;
37151;SDS011;23046;50.112;8.952;2024-03-08T00:19:20;14.27;;;7.20;;
37151;SDS011;23046;50.112;8.952;2024-03-08T00:19:30;16.17;;;7.67;;
37151;SDS011;23046;50.112;8.952;2024-03-08T00:19:40;15.37;;;7.70;;
37151;SDS011;23046;50.112;8.952;2024-03-08T00:19:51;15.88;;;7.93;;
37151;SDS011;23046;50.112;8.952;2024-03-08T00:20:02;13.73;;;7.60;;
37151;SDS011;23046;50.112;8.952;2024-03-08T00:20:18;13.25;;;7.45;;
37151;SDS011;23046;50.112;8.952;2024-03-08T00:20:28;12.55;;;7.30;;
37151;SDS011;23046;50.112;8.952;2024-03-08T00:20:38;14.67;;;7.50;;
37151;SDS011;23046;50.112;8.952;2024-03-08T00:20:48;13.90;;;7.23;;
37151;SDS011;23046;50.112;8.952;2024-03-08T00:20:59;14.07;;;6.97;;
37151;SDS011;23046;50.112;8.952;2024-03-08T00:21:10;12.75;;;6.95;;
37151;SDS011;23046;50.112;8.952;2024-03-08T00:21:21;13.15;;;7.15;;
37151;SDS011;23046;50.112;8.952;2024-03-08T00:21:32;13.77;;;7.70;;
37151;SDS011;23046;50.112;8.952;2024-03-08T00:21:42;12.60;;;7.47;;
37151;SDS011;23046;50.112;8.952;2024-03-08T00:21:52;13.53;;;7.73;;
37151;SDS011;23046;50.112;8.952;2024-03-08T00:22:02;13.87;;;7.60;;
37151;SDS011;23046;50.112;8.952;2024-03-08T00:22:13;14.90;;;7.83;;
37151;SDS011;23046;50.112;8.952;2024-03-08T00:22:23;14.57;;;7.67;;
37151;SDS011;23046;50.112;8.952;2024-03-08T00:22:33;14.30;;;7.63;;
37151;SDS011;23046;50.112;8.952;2024-03-08T00:22:43;15.43;;;7.65;;
37151;SDS011;23046;50.112;8.952;2024-03-08T00:22:54;14.77;;;7.40;;
37151;SDS011;23046;50.112;8.952;2024-03-08T00:23:06;13.00;;;7.05;;
37151;SDS011;23046;50.112;8.952;2024-03-08T00:23:17;12.53;;;7.27;;
37151;SDS011;23046;50.112;8.952;2024-03-08T00:23:27;13.10;;;7.40;;
37151;SDS011;23046;50.112;8.952;2024-03-08T00:23:38;12.68;;;7.38;;
37151;SDS011;23046;50.112;8.952;2024-03-08T00:23:49;14.63;;;7.40;;
37151;SDS011;23046;50.112;8.952;2024-03-08T00:23:59;15.70;;;7.57;;
37151;SDS011;23046;50.112;8.952;2024-03-08T00:24:09;16.47;;;7.73;;
37151;SDS011;23046;50.112;8.952;2024-03-08T00:24:20;14.70;;;7.60;;
37151;SDS011;23046;50.112;8.952;2024-03-08T00:24:34;13.48;;;7.30;;
37151;SDS011;23046;50.112;8.952;2024-03-08T00:24:44;12.27;;;7.20;;
37151;SDS011;23046;50.112;8.952;2024-03-08T00:24:55;11.37;;;6.90;;
37151;SDS011;23046;50.112;8.952;2024-03-08T00:25:06;12.32;;;6.88;;
37151;SDS011;23046;50.112;8.952;2024-03-08T00:25:19;13.57;;;7.38;;
37151;SDS011;23046;50.112;8.952;2024-03-08T00:25:29;14.10;;;7.67;;
37151;SDS011;23046;50.112;8.952;2024-03-08T00:25:40;14.68;;;7.75;;
37151;SDS011;23046;50.112;8.952;2024-03-08T00:25:51;14.77;;;7.70;;
37151;SDS011;23046;50.112;8.952;2024-03-08T00:26:01;14.23;;;7.53;;
37151;SDS011;23046;50.112;8.952;2024-03-08T00:26:13;13.20;;;7.75;;
37151;SDS011;23046;50.112;8.952;2024-03-08T00:26:23;13.40;;;7.60;;
37151;SDS011;23046;50.112;8.952;2024-03-08T00:26:34;12.97;;;7.40;;
37151;SDS011;23046;50.112;8.952;2024-03-08T00:26:44;14.37;;;7.53;;
37151;SDS011;23046;50.112;8.952;2024-03-08T00:26:54;15.47;;;7.63;;
37151;SDS011;23046;50.112;8.952;2024-03-08T00:27:05;16.23;;;8.15;;
37151;SDS011;23046;50.112;8.952;2024-03-08T00:27:16;14.98;;;7.75;;
37151;SDS011;23046;50.112;8.952;2024-03-08T00:27:26;15.07;;;7.60;;
37151;SDS011;23046;50.112;8.952;2024-03-08T00:27:36;15.07;;;7.27;;
37151;SDS011;23046;50.112;8.952;2024-03-08T00:27:46;15.30;;;7.35;;
37151;SDS011;23046;50.112;8.952;2024-03-08T00:27:59;13.98;;;7.35;;
37151;SDS011;23046;50.112;8.952;2024-03-08T00:28:10;12.60;;;7.18;;
37151;SDS011;23046;50.112;8.952;2024-03-08T00:28:23;12.88;;;7.00;;
37151;SDS011;23046;50.112;8.952;2024-03-08T00:28:35;13.90;;;7.50;;
37151;SDS011;23046;50.112;8.952;2024-03-08T00:28:45;14.23;;;7.83;;
37151;SDS011;23046;50.112;8.952;2024-03-08T00:28:55;12.93;;;7.77;;
37151;SDS011;23046;50.112;8.952;2024-03-08T00:29:05;14.13;;;7.70;;
37151;SDS011;23046;50.112;8.952;2024-03-08T00:29:17;14.02;;;7.57;;
37151;SDS011;23046;50.112;8.952;2024-03-08T00:29:27;13.70;;;7.40;;
37151;SDS011;23046;50.112;8.952;2024-03-08T00:29:38;13.37;;;7.30;;
37151;SDS011;23046;50.112;8.952;2024-03-08T00:29:51;13.88;;;7.60;;
37151;SDS011;23046;50.112;8.952;2024-03-08T00:30:01;12.77;;;7.57;;
37151;SDS011;23046;50.112;8.952;2024-03-08T00:30:11;13.73;;;7.60;;
37151;SDS011;23046;50.112;8.952;2024-03-08T00:30:23;14.52;;;7.60;;
37151;SDS011;23046;50.112;8.952;2024-03-08T00:30:35;14.25;;;7.45;;
37151;SDS011;23046;50.112;8.952;2024-03-08T00:30:45;13.43;;;7.27;;
37151;SDS011;23046;50.112;8.952;2024-03-08T00:30:56;11.70;;;7.03;;
37151;SDS011;23046;50.112;8.952;2024-03-08T00:31:06;12.17;;;6.90;;
37151;SDS011;23046;50.112;8.952;2024-03-08T00:31:17;13.70;;;7.07;;
37151;SDS011;23046;50.112;8.952;2024-03-08T00:31:27;14.60;;;6.93;;
37151;SDS011;23046;50.112;8.952;2024-03-08T00:31:38;14.77;;;7.10;;
37151;SDS011;23046;50.112;8.952;2024-03-08T00:31:48;13.30;;;6.90;;
37151;SDS011;23046;50.112;8.952;2024-03-08T00:31:58;13.30;;;7.30;;
37151;SDS011;23046;50.112;8.952;2024-03-08T00:32:08;12.70;;;7.13;;
37151;SDS011;23046;50.112;8.952;2024-03-08T00:32:19;11.93;;;7.20;;
37151;SDS011;23046;50.112;8.952;2024-03-08T00:32:29;11.87;;;6.97;;
37151;SDS011;23046;50.112;8.952;2024-03-08T00:32:39;13.43;;;7.30;;
37151;SDS011;23046;50.112;8.952;2024-03-08T00:32:49;13.13;;;7.30;;
37151;SDS011;23046;50.112;8.952;2024-03-08T00:33:00;12.47;;;7.30;;
37151;SDS011;23046;50.112;8.952;2024-03-08T00:33:10;12.03;;;7.33;;
37151;SDS011;23046;50.112;8.952;2024-03-08T00:33:20;14.30;;;7.83;;
37151;SDS011;23046;50.112;8.952;2024-03-08T00:33:31;14.07;;;8.00;;
37151;SDS011;23046;50.112;8.952;2024-03-08T00:33:41;14.13;;;7.87;;
37151;SDS011;23046;50.112;8.952;2024-03-08T00:33:51;14.17;;;7.87;;
37151;SDS011;23046;50.112;8.952;2024-03-08T00:34:02;14.57;;;7.47;;
37151;SDS011;23046;50.112;8.952;2024-03-08T00:34:12;14.32;;;7.43;;
37151;SDS011;23046;50.112;8.952;2024-03-08T00:34:23;14.30;;;7.27;;
37151;SDS011;23046;50.112;8.952;2024-03-08T00:34:35;13.40;;;7.07;;
37151;SDS011;23046;50.112;8.952;2024-03-08T00:34:49;12.82;;;6.95;;
37151;SDS011;23046;50.112;8.952;2024-03-08T00:35:02;13.00;;;7.07;;
37151;SDS011;23046;50.112;8.952;2024-03-08T00:35:12;13.87;;;7.00;;
37151;SDS011;23046;50.112;8.952;2024-03-08T00:35:22;13.57;;;7.13;;
37151;SDS011;23046;50.112;8.952;2024-03-08T00:35:32;13.63;;;7.10;;
37151;SDS011;23046;50.112;8.952;2024-03-08T00:35:43;12.57;;;6.78;;
37151;SDS011;23046;50.112;8.952;2024-03-08T00:35:53;13.07;;;6.93;;
37151;SDS011;23046;50.112;8.952;2024-03-08T00:36:04;14.43;;;7.37;;
37151;SDS011;23046;50.112;8.952;2024-03-08T00:36:14;13.85;;;7.35;;
37151;SDS011;23046;50.112;8.952;2024-03-08T00:36:24;13.33;;;7.17;;
37151;SDS011;23046;50.112;8.952;2024-03-08T00:36:35;13.35;;;7.18;;
37151;SDS011;23046;50.112;8.952;2024-03-08T00:36:45;15.03;;;7.50;;
37151;SDS011;23046;50.112;8.952;2024-03-08T00:36:55;16.70;;;7.80;;
37151;SDS011;23046;50.112;8.952;2024-03-08T00:37:05;16.17;;;8.07;;
37151;SDS011;23046;50.112;8.952;2024-03-08T00:37:15;14.97;;;8.00;;
37151;SDS011;23046;50.112;8.952;2024-03-08T00:37:26;13.53;;;7.57;;
37151;SDS011;23046;50.112;8.952;2024-03-08T00:37:36;12.90;;;7.18;;
37151;SDS011;23046;50.112;8.952;2024-03-08T00:37:46;13.57;;;7.23;;
37151;SDS011;23046;50.112;8.952;2024-03-08T00:37:56;15.23;;;7.53;;
37151;SDS011;23046;50.112;8.952;2024-03-08T00:38:07;17.10;;;7.65;;
37151;SDS011;23046;50.112;8.952;2024-03-08T00:38:17;15.97;;;7.60;;
37151;SDS011;23046;50.112;8.952;2024-03-08T00:38:28;14.18;;;7.45;;
37151;SDS011;23046;50.112;8.952;2024-03-08T00:38:39;12.73;;;7.47;;
37151;SDS011;23046;50.112;8.952;2024-03-08T00:38:49;13.35;;;7.38;;
37151;SDS011;23046;50.112;8.952;2024-03-08T00:38:59;14.50;;;7.80;;
37151;SDS011;23046;50.112;8.952;2024-03-08T00:39:10;14.05;;;7.68;;
37151;SDS011;23046;50.112;8.952;2024-03-08T00:39:22;13.52;;;7.57;;
37151;SDS011;23046;50.112;8.952;2024-03-08T00:39:32;12.90;;;7.07;;
37151;SDS011;23046;50.112;8.952;2024-03-08T00:39:43;13.80;;;7.22;;
37151;SDS011;23046;50.112;8.952;2024-03-08T00:39:53;15.07;;;7.23;;
37151;SDS011;23046;50.112;8.952;2024-03-08T00:40:04;15.70;;;7.43;;
37151;SDS011;23046;50.112;8.952;2024-03-08T00:40:17;14.55;;;7.45;;
37151;SDS011;23046;50.112;8.952;2024-03-08T00:40:27;13.73;;;7.45;;
37151;SDS011;23046;50.112;8.952;2024-03-08T00:40:38;12.00;;;7.00;;
37151;SDS011;23046;50.112;8.952;2024-03-08T00:40:50;12.73;;;7.15;;
37151;SDS011;23046;50.112;8.952;2024-03-08T00:41:00;13.40;;;7.20;;
37151;SDS011;23046;50.112;8.952;2024-03-08T00:41:11;13.77;;;7.40;;
37151;SDS011;23046;50.112;8.952;2024-03-08T00:41:22;14.70;;;7.30;;
37151;SDS011;23046;50.112;8.952;2024-03-08T00:41:32;14.33;;;7.23;;
37151;SDS011;23046;50.112;8.952;2024-03-08T00:41:43;14.03;;;7.20;;
37151;SDS011;23046;50.112;8.952;2024-03-08T00:41:54;12.35;;;7.25;;
37151;SDS011;23046;50.112;8.952;2024-03-08T00:42:04;12.43;;;7.17;;
37151;SDS011;23046;50.112;8.952;2024-03-08T00:42:15;13.60;;;7.30;;
37151;SDS011;23046;50.112;8.952;2024-03-08T00:42:25;13.10;;;7.22;;
37151;SDS011;23046;50.112;8.952;2024-03-08T00:42:35;12.87;;;7.23;;
37151;SDS011;23046;50.112;8.952;2024-03-08T00:42:46;12.63;;;7.33;;
37151;SDS011;23046;50.112;8.952;2024-03-08T00:42:56;13.20;;;7.78;;
37151;SDS011;23046;50.112;8.952;2024-03-08T00:43:06;13.13;;;8.10;;
37151;SDS011;23046;50.112;8.952;2024-03-08T00:43:16;11.93;;;7.67;;
37151;SDS011;23046;50.112;8.952;2024-03-08T00:43:26;11.50;;;7.40;;
37151;SDS011;23046;50.112;8.952;2024-03-08T00:43:37;11.83;;;7.43;;
37151;SDS011;23046;50.112;8.952;2024-03-08T00:43:47;13.00;;;7.78;;
37151;SDS011;23046;50.112;8.952;2024-03-08T00:43:57;13.87;;;7.87;;
37151;SDS011;23046;50.112;8.952;2024-03-08T00:44:08;12.83;;;7.57;;
37151;SDS011;23046;50.112;8.952;2024-03-08T00:44:20;12.50;;;7.47;;
37151;SDS011;23046;50.112;8.952;2024-03-08T00:44:30;12.82;;;7.47;;
37151;SDS011;23046;50.112;8.952;2024-03-08T00:44:41;14.40;;;7.80;;
37151;SDS011;23046;50.112;8.952;2024-03-08T00:44:51;14.97;;;8.20;;
37151;SDS011;23046;50.112;8.952;2024-03-08T00:45:02;14.43;;;8.20;;
37151;SDS011;23046;50.112;8.952;2024-03-08T00:45:12;13.82;;;7.82;;
37151;SDS011;23046;50.112;8.952;2024-03-08T00:45:23;12.87;;;7.30;;
37151;SDS011;23046;50.112;8.952;2024-03-08T00:45:33;12.55;;;6.90;;
37151;SDS011;23046;50.112;8.952;2024-03-08T00:45:43;11.83;;;6.73;;
37151;SDS011;23046;50.112;8.952;2024-03-08T00:45:54;12.63;;;6.93;;
37151;SDS011;23046;50.112;8.952;2024-03-08T00:46:04;12.60;;;7.23;;
37151;SDS011;23046;50.112;8.952;2024-03-08T00:46:14;14.60;;;7.53;;
37151;SDS011;23046;50.112;8.952;2024-03-08T00:46:25;14.73;;;7.60;;
37151;SDS011;23046;50.112;8.952;2024-03-08T00:46:35;14.93;;;7.70;;
37151;SDS011;23046;50.112;8.952;2024-03-08T00:46:45;14.17;;;7.60;;
37151;SDS011;23046;50.112;8.952;2024-03-08T00:46:55;14.83;;;7.53;;
37151;SDS011;23046;50.112;8.952;2024-03-08T00:47:06;13.82;;;7.22;;
37151;SDS011;23046;50.112;8.952;2024-03-08T00:47:16;15.40;;;7.37;;
37151;SDS011;23046;50.112;8.952;2024-03-08T00:47:27;14.40;;;7.33;;
37151;SDS011;23046;50.112;8.952;2024-03-08T00:47:37;13.90;;;7.23;;
37151;SDS011;23046;50.112;8.952;2024-03-08T00:47:47;12.50;;;7.20;;
37151;SDS011;23046;50.112;8.952;2024-03-08T00:47:57;14.35;;;7.07;;
37151;SDS011;23046;50.112;8.952;2024-03-08T00:48:08;14.53;;;7.27;;
37151;SDS011;23046;50.112;8.952;2024-03-08T00:48:18;15.13;;;7.28;;
37151;SDS011;23046;50.112;8.952;2024-03-08T00:48:28;14.67;;;7.80;;
37151;SDS011;23046;50.112;8.952;2024-03-08T00:48:38;15.00;;;7.57;;
37151;SDS011;23046;50.112;8.952;2024-03-08T00:48:50;15.00;;;7.50;;
37151;SDS011;23046;50.112;8.952;2024-03-08T00:49:00;14.32;;;7.40;;
37151;SDS011;23046;50.112;8.952;2024-03-08T00:49:11;13.50;;;7.37;;
37151;SDS011;23046;50.112;8.952;2024-03-08T00:49:22;12.85;;;7.20;;
37151;SDS011;23046;50.112;8.952;2024-03-08T00:49:33;12.47;;;6.97;;
37151;SDS011;23046;50.112;8.952;2024-03-08T00:49:43;11.97;;;6.97;;
37151;SDS011;23046;50.112;8.952;2024-03-08T00:49:53;11.97;;;7.27;;
37151;SDS011;23046;50.112;8.952;2024-03-08T00:50:06;12.18;;;7.28;;
37151;SDS011;23046;50.112;8.952;2024-03-08T00:50:18;13.50;;;7.47;;
37151;SDS011;23046;50.112;8.952;2024-03-08T00:50:28;13.57;;;7.43;;
37151;SDS011;23046;50.112;8.952;2024-03-08T00:50:38;14.57;;;7.87;;
37151;SDS011;23046;50.112;8.952;2024-03-08T00:50:48;14.88;;;7.97;;
37151;SDS011;23046;50.112;8.952;2024-03-08T00:50:59;14.17;;;7.70;;
37151;SDS011;23046;50.112;8.952;2024-03-08T00:51:09;12.70;;;7.17;;
37151;SDS011;23046;50.112;8.952;2024-03-08T00:51:19;12.67;;;6.97;;
37151;SDS011;23046;50.112;8.952;2024-03-08T00:51:29;13.25;;;7.28;;
37151;SDS011;23046;50.112;8.952;2024-03-08T00:51:39;14.00;;;7.77;;
37151;SDS011;23046;50.112;8.952;2024-03-08T00:51:50;13.57;;;8.00;;
37151;SDS011;23046;50.112;8.952;2024-03-08T00:52:00;13.60;;;7.90;;
37151;SDS011;23046;50.112;8.952;2024-03-08T00:52:10;12.85;;;7.70;;
37151;SDS011;23046;50.112;8.952;2024-03-08T00:52:20;11.87;;;7.50;;
37151;SDS011;23046;50.112;8.952;2024-03-08T00:52:31;12.00;;;7.60;;
37151;SDS011;23046;50.112;8.952;2024-03-08T00:52:41;13.97;;;7.70;;
37151;SDS011;23046;50.112;8.952;2024-03-08T00:52:51;13.47;;;7.60;;
37151;SDS011;23046;50.112;8.952;2024-03-08T00:53:01;13.00;;;7.10;;
37151;SDS011;23046;50.112;8.952;2024-03-08T00:53:12;13.30;;;6.82;;
37151;SDS011;23046;50.112;8.952;2024-03-08T00:53:22;15.77;;;6.87;;
37151;SDS011;23046;50.112;8.952;2024-03-08T00:53:32;16.25;;;7.15;;
37151;SDS011;23046;50.112;8.952;2024-03-08T00:53:43;15.60;;;7.40;;
37151;SDS011;23046;50.112;8.952;2024-03-08T00:53:53;15.30;;;7.83;;
37151;SDS011;23046;50.112;8.952;2024-03-08T00:54:03;15.15;;;7.90;;
37151;SDS011;23046;50.112;8.952;2024-03-08T00:54:14;15.80;;;7.80;;
37151;SDS011;23046;50.112;8.952;2024-03-08T00:54:25;14.98;;;7.60;;
37151;SDS011;23046;50.112;8.952;2024-03-08T00:54:35;14.83;;;7.57;;
37151;SDS011;23046;50.112;8.952;2024-03-08T00:54:48;13.63;;;7.63;;
37151;SDS011;23046;50.112;8.952;2024-03-08T00:54:58;13.60;;;7.63;;
37151;SDS011;23046;50.112;8.952;2024-03-08T00:55:08;13.83;;;7.87;;
37151;SDS011;23046;50.112;8.952;2024-03-08T00:55:20;13.40;;;7.82;;
37151;SDS011;23046;50.112;8.952;2024-03-08T00:55:30;16.40;;;8.20;;
37151;SDS011;23046;50.112;8.952;2024-03-08T00:55:41;16.05;;;7.65;;
37151;SDS011;23046;50.112;8.952;2024-03-08T00:55:51;15.43;;;7.33;;
37151;SDS011;23046;50.112;8.952;2024-03-08T00:56:01;13.80;;;7.15;;
37151;SDS011;23046;50.112;8.952;2024-03-08T00:56:12;14.20;;;7.33;;
37151;SDS011;23046;50.112;8.952;2024-03-08T00:56:22;14.20;;;7.50;;
37151;SDS011;23046;50.112;8.952;2024-03-08T00:56:33;13.93;;;7.53;;
37151;SDS011;23046;50.112;8.952;2024-03-08T00:56:44;13.20;;;7.43;;
37151;SDS011;23046;50.112;8.952;2024-03-08T00:56:55;13.30;;;7.50;;
37151;SDS011;23046;50.112;8.952;2024-03-08T00:57:06;13.60;;;7.30;;
37151;SDS011;23046;50.112;8.952;2024-03-08T00:57:16;14.13;;;7.53;;
37151;SDS011;23046;50.112;8.952;2024-03-08T00:57:26;14.73;;;7.40;;
37151;SDS011;23046;50.112;8.952;2024-03-08T00:57:37;14.00;;;7.40;;
37151;SDS011;23046;50.112;8.952;2024-03-08T00:57:48;14.80;;;7.40;;
37151;SDS011;23046;50.112;8.952;2024-03-08T00:57:58;14.60;;;7.50;;
37151;SDS011;23046;50.112;8.952;2024-03-08T00:58:09;15.73;;;7.80;;
37151;SDS011;23046;50.112;8.952;2024-03-08T00:58:19;14.40;;;7.50;;
37151;SDS011;23046;50.112;8.952;2024-03-08T00:58:29;13.17;;;7.17;;
37151;SDS011;23046;50.112;8.952;2024-03-08T00:58:40;12.07;;;6.82;;
37151;SDS011;23046;50.112;8.952;2024-03-08T00:58:50;11.70;;;6.60;;
37151;SDS011;23046;50.112;8.952;2024-03-08T00:59:01;12.50;;;6.95;;
37151;SDS011;23046;50.112;8.952;2024-03-08T00:59:12;12.63;;;6.88;;
37151;SDS011;23046;50.112;8.952;2024-03-08T00:59:24;13.20;;;7.10;;
37151;SDS011;23046;50.112;8.952;2024-03-08T00:59:34;15.07;;;7.50;;
37151;SDS011;23046;50.112;8.952;2024-03-08T00:59:44;16.10;;;7.80;;
37151;SDS011;23046;50.112;8.952;2024-03-08T00:59:55;16.15;;;7.68;;
37151;SDS011;23046;50.112;8.952;2024-03-08T01:00:06;13.52;;;7.13;;
37151;SDS011;23046;50.112;8.952;2024-03-08T01:00:19;12.38;;;7.00;;
37151;SDS011;23046;50.112;8.952;2024-03-08T01:00:30;13.43;;;7.45;;
37151;SDS011;23046;50.112;8.952;2024-03-08T01:00:40;13.73;;;7.57;;
37151;SDS011;23046;50.112;8.952;2024-03-08T01:00:51;12.88;;;7.45;;
37151;SDS011;23046;50.112;8.952;2024-03-08T01:01:01;12.10;;;7.17;;
37151;SDS011;23046;50.112;8.952;2024-03-08T01:01:12;13.17;;;7.17;;
37151;SDS011;23046;50.112;8.952;2024-03-08T01:01:23;14.10;;;7.32;;
37151;SDS011;23046;50.112;8.952;2024-03-08T01:01:34;13.63;;;7.32;;
37151;SDS011;23046;50.112;8.952;2024-03-08T01:01:44;13.63;;;7.33;;
37151;SDS011;23046;50.112;8.952;2024-03-08T01:01:55;13.80;;;7.55;;
37151;SDS011;23046;50.112;8.952;2024-03-08T01:02:06;14.35;;;7.95;;
37151;SDS011;23046;50.112;8.952;2024-03-08T01:02:16;14.90;;;8.20;;
37151;SDS011;23046;50.112;8.952;2024-03-08T01:02:28;16.20;;;8.10;;
37151;SDS011;23046;50.112;8.952;2024-03-08T01:02:39;16.40;;;7.88;;
37151;SDS011;23046;50.112;8.952;2024-03-08T01:02:49;16.43;;;7.87;;
37151;SDS011;23046;50.112;8.952;2024-03-08T01:02:59;15.40;;;7.93;;